Impacts TAF Board INFO
FOR SITUATIONAL AWARENESS. NOT TO BE USED FOR FLIGHT PLANNING PURPOSES.
IDs:

KMCO - Orlando Intl, FL, US

Issued at 1158 UTC 20 May 2018
Updated at 1218 UTC 20 May 2018
Potential Impact None Slight Moderate High
Time<<21/13Z 21/14Z 21/15Z 21/16Z 21/17Z 21/18Z 21/19Z 21/20Z 21/21Z 21/22Z 21/23Z 22/00Z 22/01Z
Type PRVL PRVL PRVL PRVL PRVL
VIS >6 >6 >6 >6 >6
CIG 100 100 100 100 100
Cover BKN BKN BKN BKN BKN
FltCat VFR VFR VFR VFR VFR
WX -- -- -- -- --
WDir 90 90 90 90 90
WSpd 5 5 5 5 5
WGst -- -- -- -- --

Raw TAF
KMCO 201158Z 2012/2118 10004KT P6SM -RA VCSH SCT006 SCT025 OVC040
  TEMPO 2012/2016 2SM SHRA BKN006 OVC025
  FM202200 11009KT P6SM VCSH FEW015 BKN040 OVC100
  FM210200 09005KT P6SM FEW025 BKN100


METAR Board
Radar Display
Forecast Discussion

FOR SITUATIONAL AWARENESS. NOT TO BE USED FOR FLIGHT PLANNING PURPOSES.